Terminal Aerodrome Forecast
Issued by NWS

Home | Current Version | Previous Version | Text Only | Print | Product List | Glossary On
Versions: 1 2 3 4 5 6 7 8 9 10 11 12 13 14 15 16 17
000
FTUS44 KLIX 300508 AAB
TAFGPT
TAF AMD
KGPT 300508Z 3005/3024 01007KT P6SM -RA FEW040 SCT110
     FM300700 26004KT P6SM BKN070 BKN120
     FM301500 02005KT P6SM BKN060 BKN100
     FM302000 08006KT P6SM VCTS BKN040CB OVC080=

USA.gov is the U.S. government's official web portal to all federal, state and local government web resources and services.